Time;durP1;ratioP1;P1;durP2;ratioP2;P2;SDS_P1;SDS_P2;PMS_P1;PMS_P2;Temp;Humidity;BMP_temperature;BMP_pressure;BME280_temperature;BME280_humidity;BME280_pressure;Samples;Min_cycle;Max_cycle;Signal;HPM_P1;HPM_P2
2022/08/29 00:00:49;;;;;;;5.67;1.87;;;16.70;93.70;;;17.69;83.72;98439.13;5084142;28;20487;-76
2022/08/29 00:03:18;;;;;;;5.73;1.90;;;16.70;93.70;;;17.64;83.99;98433.69;5082661;28;20949;-76
2022/08/29 00:05:47;;;;;;;8.43;2.30;;;16.70;93.80;;;17.64;84.63;98436.31;5081341;28;20544;-76
2022/08/29 00:08:17;;;;;;;1.83;1.43;;;16.60;93.80;;;17.52;85.17;98441.53;5080369;28;20525;-76
2022/08/29 00:10:46;;;;;;;3.17;1.70;;;16.50;94.00;;;17.57;85.29;98442.50;5080843;28;20596;-77
2022/08/29 00:13:16;;;;;;;6.20;1.93;;;16.50;94.10;;;17.46;85.36;98439.75;5079436;28;20463;-76
2022/08/29 00:15:45;;;;;;;5.77;1.80;;;16.60;93.80;;;17.44;86.19;98437.34;5085168;28;20550;-76
2022/08/29 00:18:18;;;;;;;5.53;1.93;;;16.50;94.10;;;17.46;85.85;98435.28;5082232;28;20467;-76
2022/08/29 00:20:48;;;;;;;4.57;1.83;;;16.50;94.20;;;17.43;85.76;98441.00;5082103;28;20891;-75
2022/08/29 00:23:17;;;;;;;4.33;1.87;;;16.40;94.10;;;17.41;86.08;98431.69;5080549;28;20478;-76
2022/08/29 00:25:46;;;;;;;2.50;1.67;;;16.50;94.10;;;17.42;86.24;98439.38;5083926;28;20471;-76
2022/08/29 00:28:15;;;;;;;4.47;2.10;;;16.40;94.10;;;17.39;86.40;98434.53;5083835;28;20498;-76
2022/08/29 00:30:44;;;;;;;4.10;2.03;;;16.40;94.20;;;17.40;86.79;98441.47;5082684;28;20471;-76
2022/08/29 00:33:15;;;;;;;5.87;1.87;;;16.40;94.30;;;17.34;86.88;98439.69;5083152;28;20563;-76
2022/08/29 00:35:45;;;;;;;5.20;2.40;;;16.40;94.20;;;17.30;86.71;98449.09;5084554;28;20459;-76
2022/08/29 00:38:17;;;;;;;4.30;1.87;;;16.30;94.20;;;17.23;87.32;98440.44;5083614;28;20493;-75
2022/08/29 00:40:50;;;;;;;3.93;2.00;;;16.30;94.50;;;17.27;87.58;98441.59;5085238;28;20499;-76
2022/08/29 00:43:23;;;;;;;5.73;2.40;;;16.30;94.40;;;17.28;87.55;98440.59;5083450;28;20450;-76
2022/08/29 00:46:05;;;;;;;5.50;2.27;;;16.20;94.40;;;17.24;87.60;98436.75;5084990;28;20471;-76
2022/08/29 00:48:39;;;;;;;3.67;1.60;;;16.20;94.40;;;17.13;88.38;98439.31;5083776;28;20463;-76
2022/08/29 00:51:15;;;;;;;7.67;1.97;;;16.20;94.60;;;17.14;88.98;98439.09;5081350;28;20528;-76
2022/08/29 00:53:50;;;;;;;3.13;1.97;;;16.10;94.70;;;17.14;88.61;98441.75;5081721;28;20504;-76
2022/08/29 00:56:19;;;;;;;7.40;1.97;;;16.10;94.60;;;17.07;89.10;98441.81;5082301;28;20487;-76
2022/08/29 00:58:56;;;;;;;2.70;1.60;;;16.10;94.70;;;17.05;89.11;98438.56;5082515;28;20517;-76
2022/08/29 01:01:26;;;;;;;6.93;2.30;;;16.10;94.70;;;17.03;89.40;98439.81;5081862;28;20540;-76
2022/08/29 01:03:57;;;;;;;6.53;2.50;;;16.10;94.80;;;17.06;89.62;98442.03;5080592;28;20459;-76
2022/08/29 01:06:28;;;;;;;4.37;2.00;;;16.00;94.70;;;17.05;89.59;98445.69;5082709;28;20462;-76
2022/08/29 01:08:57;;;;;;;4.10;1.80;;;15.90;94.80;;;16.86;90.42;98450.16;5083870;28;20477;-76
2022/08/29 01:14:16;;;;;;;5.00;2.20;;;15.90;94.90;;;16.79;91.12;98448.59;5083510;28;20459;-76
2022/08/29 01:16:47;;;;;;;6.60;2.20;;;15.90;94.90;;;16.76;91.61;98459.59;5082991;28;20540;-76
2022/08/29 01:19:30;;;;;;;2.10;1.50;;;15.90;95.10;;;16.78;91.10;98462.81;5081237;28;20517;-76
2022/08/29 01:22:12;;;;;;;3.67;1.80;;;15.90;94.90;;;16.78;91.49;98458.34;5079983;28;21016;-76
2022/08/29 01:24:49;;;;;;;8.47;1.80;;;15.80;95.00;;;16.80;91.14;98463.41;5081676;28;20482;-76
2022/08/29 01:27:22;;;;;;;3.60;1.93;;;15.80;95.00;;;16.79;91.98;98461.78;5085876;28;20538;-76
2022/08/29 01:29:51;;;;;;;3.17;1.73;;;15.80;95.10;;;16.70;92.30;98455.16;5084027;28;20471;-76
2022/08/29 01:32:20;;;;;;;4.63;2.10;;;15.70;95.30;;;16.63;92.70;98457.84;5084018;28;20549;-76
2022/08/29 01:34:48;;;;;;;3.40;1.70;;;15.80;95.20;;;16.63;92.85;98454.38;5083619;28;20490;-77
2022/08/29 01:37:18;;;;;;;3.20;1.60;;;15.70;95.30;;;16.66;93.11;98453.97;5080706;28;20505;-76
2022/08/29 01:39:49;;;;;;;3.30;1.83;;;15.70;95.30;;;16.67;92.92;98450.28;5082861;28;20486;-76
2022/08/29 01:42:22;;;;;;;2.13;1.60;;;15.70;95.40;;;16.67;93.52;98453.75;5082802;28;20471;-76
2022/08/29 01:44:52;;;;;;;8.30;1.80;;;15.70;95.50;;;16.68;92.83;98454.56;5082965;28;20658;-76
2022/08/29 01:47:25;;;;;;;8.93;1.77;;;15.70;95.50;;;16.68;93.30;98458.03;5083108;28;20456;-76
2022/08/29 01:49:54;;;;;;;3.80;1.73;;;15.70;95.50;;;16.72;93.47;98463.69;5082156;28;20474;-76
2022/08/29 01:52:22;;;;;;;5.33;2.03;;;15.70;95.50;;;16.70;93.66;98461.25;5084783;28;20893;-76
2022/08/29 01:54:53;;;;;;;5.77;2.27;;;15.70;95.60;;;16.68;93.65;98462.47;5085918;28;20866;-76
2022/08/29 01:57:22;;;;;;;13.63;2.30;;;15.70;95.40;;;16.62;94.17;98448.31;5083200;28;20566;-76
2022/08/29 01:59:51;;;;;;;4.77;2.30;;;15.70;95.70;;;16.57;94.70;98456.06;5081199;28;20973;-77
2022/08/29 02:02:25;;;;;;;13.17;2.17;;;15.70;95.50;;;16.50;95.10;98450.81;5083386;28;20980;-76
2022/08/29 02:04:56;;;;;;;7.17;1.93;;;15.70;95.60;;;16.49;95.92;98453.66;5083012;28;20977;-76
2022/08/29 02:07:28;;;;;;;9.90;2.10;;;15.70;95.90;;;16.53;95.92;98453.00;5087827;28;20914;-76
2022/08/29 02:09:59;;;;;;;4.70;2.27;;;15.60;95.90;;;16.55;95.49;98448.38;5087406;28;20451;-76
2022/08/29 02:12:28;;;;;;;3.90;1.70;;;15.60;95.80;;;16.56;95.75;98449.16;5087156;28;20486;-76
2022/08/29 02:14:57;;;;;;;4.80;1.50;;;15.70;95.80;;;16.58;95.50;98455.88;5084096;28;20467;-76
2022/08/29 02:17:26;;;;;;;3.90;1.90;;;15.70;95.80;;;16.59;95.51;98456.69;5085845;28;20459;-76
2022/08/29 02:19:55;;;;;;;3.80;2.10;;;15.60;95.90;;;16.62;96.52;98458.06;5083385;28;20459;-76
2022/08/29 02:22:25;;;;;;;3.13;1.87;;;15.70;96.10;;;16.62;96.20;98458.06;5087804;28;20464;-76
2022/08/29 02:24:54;;;;;;;9.80;2.43;;;15.70;95.90;;;16.66;96.22;98453.97;5083206;28;20460;-76
2022/08/29 02:27:24;;;;;;;4.90;1.90;;;15.70;96.00;;;16.66;95.94;98454.75;5084386;28;20468;-76
2022/08/29 02:29:52;;;;;;;4.13;1.97;;;15.70;95.80;;;16.65;96.16;98457.63;5083613;28;20859;-76
2022/08/29 02:32:22;;;;;;;5.90;2.13;;;15.70;95.90;;;16.62;96.20;98447.50;5085540;28;20544;-76
2022/08/29 02:34:52;;;;;;;2.90;1.53;;;15.70;95.80;;;16.59;96.75;98452.19;5085769;28;20459;-76
2022/08/29 02:37:22;;;;;;;4.40;2.30;;;15.70;95.90;;;16.51;96.80;98452.44;5083951;28;20459;-76
2022/08/29 02:39:50;;;;;;;4.23;1.60;;;15.60;95.90;;;16.47;97.47;98442.50;5083591;28;20896;-76
2022/08/29 02:42:19;;;;;;;10.40;2.30;;;15.60;96.00;;;16.39;98.16;98440.13;5083468;28;20495;-76
2022/08/29 02:44:49;;;;;;;2.67;1.70;;;15.50;96.00;;;16.38;97.94;98447.22;5084870;28;20460;-76
2022/08/29 02:47:19;;;;;;;11.13;2.30;;;15.60;96.00;;;16.36;98.44;98444.00;5083186;28;20965;-76
2022/08/29 02:49:48;;;;;;;6.27;2.07;;;15.50;96.00;;;16.42;98.49;98455.53;5083713;28;20462;-75
2022/08/29 02:52:17;;;;;;;6.20;2.23;;;15.50;96.20;;;16.42;98.26;98447.59;5084005;28;21240;-76
2022/08/29 02:54:46;;;;;;;3.10;1.97;;;15.60;96.20;;;16.43;98.37;98444.75;5083811;28;20540;-76
2022/08/29 02:57:15;;;;;;;10.93;1.77;;;15.60;96.10;;;16.45;98.28;98436.66;5083361;28;20572;-76
2022/08/29 02:59:43;;;;;;;3.17;1.87;;;15.60;96.10;;;16.45;98.35;98440.06;5083026;28;20457;-76
2022/08/29 03:02:13;;;;;;;2.83;1.80;;;15.50;96.20;;;16.48;98.27;98444.94;5083934;28;20501;-76
2022/08/29 03:04:42;;;;;;;6.13;2.13;;;15.50;96.20;;;16.44;98.64;98440.31;5084175;28;21008;-76
2022/08/29 03:07:11;;;;;;;6.67;1.90;;;15.50;96.40;;;16.43;98.48;98449.22;5086082;28;21267;-76
2022/08/29 03:09:40;;;;;;;14.40;4.60;;;15.50;96.40;;;16.40;98.61;98444.38;5086796;28;20467;-86
2022/08/29 03:12:09;;;;;;;6.23;2.33;;;15.60;96.10;;;16.40;98.81;98449.66;5080876;28;20868;-79
2022/08/29 03:14:38;;;;;;;5.10;3.27;;;15.60;96.30;;;16.40;98.83;98444.38;5083847;28;20455;-84
2022/08/29 03:17:07;;;;;;;8.20;3.80;;;15.50;96.30;;;16.41;98.75;98440.72;5086674;28;20455;-79
2022/08/29 03:19:39;;;;;;;7.33;4.23;;;15.50;96.20;;;16.40;98.99;98445.19;5083954;28;20463;-81
2022/08/29 03:22:09;;;;;;;3.37;1.80;;;15.50;96.30;;;16.40;99.25;98449.66;5082559;28;21511;-79
2022/08/29 03:24:38;;;;;;;3.50;1.93;;;15.50;96.40;;;16.44;98.75;98441.13;5087056;28;21095;-79
2022/08/29 03:27:08;;;;;;;5.60;1.97;;;15.50;96.40;;;16.46;98.77;98439.06;5083240;28;20490;-79
2022/08/29 03:29:37;;;;;;;7.13;2.07;;;15.50;96.40;;;16.40;98.75;98439.91;5084729;28;20868;-79
2022/08/29 03:32:06;;;;;;;2.90;1.90;;;15.50;96.30;;;16.34;98.84;98448.69;5085017;28;20594;-79
2022/08/29 03:34:35;;;;;;;8.77;2.70;;;15.40;96.30;;;16.33;98.73;98438.34;5083637;28;20456;-79
2022/08/29 03:37:06;;;;;;;2.70;1.77;;;15.40;96.30;;;16.30;99.14;98439.59;5086997;28;20455;-83
2022/08/29 03:39:36;;;;;;;4.03;2.10;;;15.30;96.40;;;16.29;98.97;98431.88;5084814;28;20996;-81
2022/08/29 03:42:07;;;;;;;5.43;2.33;;;15.30;96.40;;;16.20;99.19;98439.25;5081891;28;20552;-81
2022/08/29 03:44:39;;;;;;;6.03;2.10;;;15.20;96.40;;;16.22;99.05;98437.19;5083298;28;20459;-80
2022/08/29 03:47:08;;;;;;;3.83;1.90;;;15.30;96.30;;;16.18;98.95;98441.28;5082985;28;20464;-80
2022/08/29 03:49:37;;;;;;;6.47;2.10;;;15.30;96.30;;;16.08;99.85;98443.56;5084876;28;20456;-80
2022/08/29 03:52:08;;;;;;;3.63;2.00;;;15.20;96.40;;;16.05;99.91;98446.63;5082871;28;20459;-82
2022/08/29 03:54:38;;;;;;;3.50;1.83;;;15.20;96.30;;;16.03;100.00;98446.06;5082778;28;20966;-80
2022/08/29 03:57:10;;;;;;;4.00;1.87;;;15.20;96.40;;;16.02;100.00;98444.44;5085006;28;20882;-79
2022/08/29 03:59:39;;;;;;;11.63;2.40;;;15.10;96.50;;;15.91;100.00;98451.19;5084052;28;20524;-80
2022/08/29 04:02:09;;;;;;;2.87;1.80;;;15.10;96.60;;;15.93;100.00;98449.13;5083185;28;21062;-79
2022/08/29 04:07:22;;;;;;;4.07;2.17;;;15.10;96.80;;;15.95;100.00;98438.38;5076553;28;20802;-79
2022/08/29 04:09:51;;;;;;;2.50;1.63;;;15.10;96.60;;;15.94;100.00;98445.47;5084944;28;20459;-80
2022/08/29 04:12:21;;;;;;;6.50;2.20;;;15.00;96.70;;;15.92;100.00;98447.53;5081667;28;20452;-79
2022/08/29 04:15:17;;;;;;;7.03;2.17;;;15.00;96.70;;;15.93;100.00;98448.34;5083594;28;20568;-79
2022/08/29 04:17:46;;;;;;;4.03;2.20;;;15.00;96.70;;;15.90;100.00;98438.19;5084006;28;21077;-79
2022/08/29 04:20:22;;;;;;;5.23;2.07;;;15.00;96.80;;;15.87;100.00;98443.88;5080986;28;20478;-79
2022/08/29 04:22:56;;;;;;;3.80;1.90;;;15.10;96.70;;;15.87;100.00;98449.16;5084919;28;23188;-80
2022/08/29 04:25:34;;;;;;;5.63;2.07;;;15.00;96.90;;;15.88;100.00;98445.53;5082103;28;20504;-79
2022/08/29 04:28:07;;;;;;;6.43;1.70;;;15.00;97.20;;;15.82;100.00;98446.38;5085135;28;20456;-79
2022/08/29 04:30:39;;;;;;;11.00;2.33;;;14.90;96.90;;;15.81;100.00;98445.56;5082024;28;20494;-80
2022/08/29 04:33:09;;;;;;;3.47;1.77;;;14.80;97.10;;;15.83;100.00;98446.13;5083769;28;20463;-80
2022/08/29 04:35:51;;;;;;;3.13;1.80;;;14.90;97.10;;;15.79;100.00;98452.84;5082703;28;20470;-80
2022/08/29 04:38:22;;;;;;;4.83;2.00;;;14.90;97.10;;;15.83;100.00;98455.88;5082282;28;20498;-80
2022/08/29 04:40:50;;;;;;;7.37;2.37;;;14.80;97.20;;;15.81;100.00;98452.66;5082962;28;20475;-80
2022/08/29 04:43:19;;;;;;;4.40;2.27;;;14.80;97.30;;;15.85;100.00;98456.50;5081167;28;22263;-80
2022/08/29 04:45:55;;;;;;;12.93;2.20;;;14.90;97.30;;;15.85;100.00;98456.50;5081896;28;20463;-80
2022/08/29 04:48:24;;;;;;;5.17;2.10;;;15.00;97.10;;;15.85;100.00;98461.75;5083020;28;20531;-79
2022/08/29 04:50:56;;;;;;;2.50;1.97;;;15.00;97.20;;;15.82;100.00;98460.38;5078803;28;21196;-80
2022/08/29 04:53:28;;;;;;;6.03;1.90;;;14.90;97.10;;;15.79;100.00;98462.63;5084120;28;20512;-80
2022/08/29 04:56:00;;;;;;;5.93;2.03;;;14.90;97.10;;;15.78;100.00;98466.25;5082653;28;20462;-80
2022/08/29 04:58:31;;;;;;;6.77;3.03;;;14.90;97.10;;;15.78;100.00;98466.25;5083293;28;20547;-83
2022/08/29 05:00:59;;;;;;;9.20;3.20;;;14.90;97.30;;;15.78;100.00;98455.72;5081617;28;20524;-80
2022/08/29 05:03:28;;;;;;;2.63;2.00;;;14.90;97.20;;;15.78;100.00;98455.72;5082491;28;20491;-80
2022/08/29 05:05:58;;;;;;;11.20;2.20;;;14.90;97.30;;;15.77;100.00;98459.34;5084244;28;20454;-80
2022/08/29 05:08:30;;;;;;;7.83;1.67;;;14.90;97.30;;;15.79;100.00;98459.97;5082620;28;20976;-79
2022/08/29 05:10:58;;;;;;;7.43;2.07;;;14.80;97.20;;;15.72;100.00;98456.56;5082370;28;20468;-80
2022/08/29 05:13:27;;;;;;;8.37;2.67;;;14.80;97.20;;;15.78;100.00;98463.63;5082358;28;20466;-79
2022/08/29 05:15:56;;;;;;;3.67;1.90;;;14.80;97.30;;;15.79;100.00;98462.63;5082301;28;20493;-79
2022/08/29 05:18:24;;;;;;;3.70;1.83;;;14.90;97.40;;;15.78;100.00;98461.81;5081721;28;20464;-80
2022/08/29 05:20:53;;;;;;;9.10;2.73;;;14.90;97.40;;;15.76;100.00;98470.94;5084982;28;20558;-80
2022/08/29 05:23:22;;;;;;;4.10;1.80;;;14.80;97.40;;;15.75;100.00;98461.41;5081843;28;20503;-79
2022/08/29 05:25:58;;;;;;;8.10;2.20;;;14.90;97.40;;;15.78;100.00;98461.81;5081179;28;20455;-79
2022/08/29 05:28:29;;;;;;;2.80;1.73;;;14.90;97.40;;;15.81;100.00;98464.00;5082479;28;20539;-80
2022/08/29 05:30:58;;;;;;;10.63;2.20;;;14.80;97.50;;;15.84;100.00;98468.06;5083568;28;20623;-89
2022/08/29 05:33:27;;;;;;;6.00;2.23;;;14.90;97.40;;;15.83;100.00;98474.34;5085263;28;20455;-79
2022/08/29 05:35:57;;;;;;;7.40;2.20;;;14.90;97.50;;;15.87;100.00;98462.34;5080472;28;20968;-80
2022/08/29 05:38:28;;;;;;;3.43;1.60;;;14.90;97.50;;;15.90;100.00;98464.56;5082846;28;20459;-80
2022/08/29 05:40:58;;;;;;;7.10;2.20;;;14.90;97.60;;;15.88;100.00;98458.72;5087464;28;20467;-80
2022/08/29 05:43:28;;;;;;;3.37;1.93;;;14.90;97.60;;;15.87;100.00;98463.16;5088717;28;20495;-81
2022/08/29 05:46:02;;;;;;;8.23;2.50;;;14.90;97.70;;;15.86;100.00;98463.41;5090511;28;20455;-80
2022/08/29 05:48:32;;;;;;;6.57;1.97;;;14.90;97.60;;;15.87;100.00;98465.81;5089203;28;20482;-81
2022/08/29 05:51:02;;;;;;;4.37;1.87;;;14.90;97.60;;;15.88;100.00;98471.91;5088433;28;20455;-82
2022/08/29 05:53:33;;;;;;;3.67;1.77;;;14.90;97.60;;;15.90;100.00;98472.47;5088519;28;20573;-80
2022/08/29 05:56:03;;;;;;;2.43;1.70;;;14.90;97.60;;;15.91;100.00;98474.09;5089465;28;20516;-81
2022/08/29 05:58:33;;;;;;;3.33;2.03;;;15.00;97.50;;;15.94;100.00;98477.13;5089152;28;20481;-81
2022/08/29 06:01:02;;;;;;;6.73;2.30;;;15.00;97.50;;;15.95;100.00;98476.13;5088881;28;20463;-81
2022/08/29 06:03:31;;;;;;;6.57;2.20;;;15.10;97.60;;;16.02;100.00;98484.00;5088548;28;20498;-81
2022/08/29 06:06:00;;;;;;;4.50;1.90;;;15.10;97.60;;;16.09;100.00;98474.22;5087819;28;20824;-81
2022/08/29 06:08:30;;;;;;;4.80;2.23;;;15.10;97.60;;;16.14;100.00;98487.56;5089624;28;20543;-81
2022/08/29 06:10:59;;;;;;;3.83;2.00;;;15.10;97.70;;;16.17;100.00;98481.91;5088407;28;21460;-80
2022/08/29 06:13:30;;;;;;;2.87;1.70;;;15.20;97.80;;;16.20;100.00;98491.22;5087737;28;20456;-80
2022/08/29 06:15:59;;;;;;;3.57;2.10;;;15.30;98.00;;;16.26;100.00;98491.19;5089340;28;20448;-80
2022/08/29 06:18:28;;;;;;;5.57;2.20;;;15.30;97.80;;;16.31;100.00;98499.28;5090547;28;20463;-80
2022/08/29 06:21:05;;;;;;;4.40;1.80;;;15.40;97.90;;;16.37;100.00;98487.06;5090557;28;20486;-80
2022/08/29 06:23:34;;;;;;;6.93;2.30;;;15.50;98.00;;;16.44;100.00;98486.00;5090060;28;20846;-81
2022/08/29 06:26:05;;;;;;;11.80;2.23;;;15.50;97.80;;;16.51;100.00;98485.94;5086678;28;20471;-81
2022/08/29 06:28:37;;;;;;;3.83;2.17;;;15.60;97.80;;;16.54;100.00;98488.16;5089893;28;21107;-81
2022/08/29 06:31:08;;;;;;;6.13;2.07;;;15.70;97.70;;;16.59;100.00;98496.28;5087847;28;20950;-81
2022/08/29 06:33:37;;;;;;;4.37;2.07;;;15.70;97.60;;;16.66;100.00;98493.59;5088264;28;20463;-81
2022/08/29 06:36:09;;;;;;;4.33;2.17;;;15.80;97.20;;;16.68;100.00;98492.34;5090488;28;20482;-80
2022/08/29 06:38:38;;;;;;;6.67;2.20;;;15.80;97.30;;;16.76;100.00;98491.28;5070362;28;20522;-80
2022/08/29 06:41:09;;;;;;;7.23;2.07;;;15.90;96.90;;;16.82;100.00;98490.41;5088963;28;20451;-81
2022/08/29 06:43:40;;;;;;;6.43;2.27;;;15.90;96.70;;;16.89;100.00;98497.25;5087566;28;20471;-81
2022/08/29 06:46:18;;;;;;;8.30;1.67;;;16.00;96.70;;;16.94;99.80;98491.31;5087117;28;20455;-83
2022/08/29 06:48:47;;;;;;;3.63;1.63;;;16.00;96.60;;;17.02;98.67;98501.63;5089725;28;20451;-80
2022/08/29 06:51:16;;;;;;;3.87;2.17;;;16.10;96.40;;;17.09;97.71;98497.91;5085573;28;20467;-80
2022/08/29 06:53:45;;;;;;;10.90;2.60;;;16.20;95.80;;;17.17;96.40;98502.09;5089795;28;21039;-81
2022/08/29 06:56:15;;;;;;;5.67;2.53;;;16.30;95.70;;;17.26;93.98;98502.63;5089543;28;20810;-81
2022/08/29 06:58:45;;;;;;;5.47;1.87;;;16.40;95.70;;;17.34;93.57;98500.50;5089173;28;20502;-81
2022/08/29 07:01:17;;;;;;;6.50;2.63;;;16.50;95.50;;;17.42;92.96;98507.34;5088141;28;20840;-81
2022/08/29 07:03:46;;;;;;;11.63;2.50;;;16.50;95.40;;;17.48;91.18;98503.81;5088363;28;20574;-80
2022/08/29 07:06:17;;;;;;;4.47;2.20;;;16.70;95.20;;;17.54;91.12;98501.09;5086775;28;21663;-81
2022/08/29 07:08:47;;;;;;;9.47;2.00;;;16.70;95.00;;;17.58;89.65;98502.31;5087308;28;20482;-81
2022/08/29 07:11:24;;;;;;;3.73;1.80;;;16.80;94.60;;;17.68;88.28;98499.16;5087315;28;20447;-80
2022/08/29 07:13:57;;;;;;;8.87;2.37;;;16.90;94.60;;;17.77;88.20;98497.81;5086166;28;20468;-81
2022/08/29 07:16:26;;;;;;;3.93;1.87;;;16.90;94.60;;;17.83;87.54;98494.31;5089084;28;20444;-81
2022/08/29 07:18:56;;;;;;;7.30;1.97;;;17.10;94.50;;;17.91;86.83;98495.84;5087587;28;20504;-81
2022/08/29 07:21:26;;;;;;;7.30;2.20;;;17.10;94.20;;;18.00;86.26;98499.78;5087496;28;20527;-81
2022/08/29 07:23:58;;;;;;;6.20;2.00;;;17.20;94.00;;;18.07;84.94;98501.31;5087110;28;20490;-81
2022/08/29 07:26:30;;;;;;;4.67;2.10;;;17.30;94.10;;;18.10;84.03;98490.28;5088382;28;20452;-81
2022/08/29 07:29:05;;;;;;;11.87;2.47;;;17.40;93.70;;;18.20;83.73;98488.94;5085979;28;20866;-81
2022/08/29 07:31:34;;;;;;;7.70;2.13;;;17.50;93.80;;;18.30;83.44;98486.53;5085192;28;20476;-81
2022/08/29 07:34:03;;;;;;;4.80;2.30;;;17.60;93.60;;;18.39;83.41;98488.66;5087636;28;20447;-81
2022/08/29 07:36:32;;;;;;;5.03;1.90;;;17.60;93.60;;;18.47;83.10;98492.81;5087919;28;20556;-81
2022/08/29 07:39:04;;;;;;;5.70;2.30;;;17.70;93.60;;;18.57;82.18;98490.44;5086012;28;20861;-80
2022/08/29 07:41:33;;;;;;;4.93;2.33;;;17.90;93.50;;;18.67;80.85;98493.38;5089167;28;20478;-80
2022/08/29 07:44:04;;;;;;;5.53;1.80;;;18.00;93.20;;;18.74;79.99;98485.31;5084860;28;20521;-80
2022/08/29 07:46:32;;;;;;;6.47;2.60;;;18.10;92.90;;;18.80;79.05;98484.41;5088741;28;20482;-81
2022/08/29 07:49:02;;;;;;;7.43;2.47;;;18.20;92.80;;;18.85;78.37;98481.84;5085536;28;20504;-81
2022/08/29 07:51:31;;;;;;;12.23;2.37;;;18.30;92.60;;;18.89;76.52;98490.97;5087351;28;20467;-80
2022/08/29 07:54:00;;;;;;;7.90;2.23;;;18.40;92.10;;;18.94;76.76;98496.41;5085649;28;20479;-80
2022/08/29 07:56:39;;;;;;;5.90;1.90;;;18.40;92.10;;;18.99;76.63;98494.66;5086650;28;20440;-81
2022/08/29 07:59:09;;;;;;;6.20;2.03;;;18.40;92.20;;;19.04;76.63;98491.34;5088514;28;20839;-80
2022/08/29 08:01:40;;;;;;;4.20;2.17;;;18.50;92.30;;;19.09;75.54;98494.09;5088186;28;20455;-80
2022/08/29 08:04:09;;;;;;;6.17;2.00;;;18.50;92.10;;;19.13;75.95;98489.13;5086866;28;20573;-80
2022/08/29 08:06:41;;;;;;;8.47;2.30;;;18.60;92.20;;;19.16;75.90;98489.47;5087684;28;20493;-82
2022/08/29 08:09:12;;;;;;;4.10;1.70;;;18.60;92.10;;;19.16;75.13;98492.13;5085230;28;20892;-81
2022/08/29 08:11:42;;;;;;;7.30;2.13;;;18.60;91.90;;;19.20;75.53;98497.78;5087120;28;20975;-81
2022/08/29 08:14:13;;;;;;;18.03;2.20;;;18.60;91.90;;;19.22;74.91;98498.38;5086745;28;20879;-81
2022/08/29 08:16:42;;;;;;;6.03;2.23;;;18.60;91.90;;;19.25;74.20;98498.72;5087372;28;20462;-80
2022/08/29 08:19:13;;;;;;;7.50;2.33;;;18.70;91.80;;;19.30;74.38;98500.69;5086723;28;20456;-80
2022/08/29 08:21:43;;;;;;;5.37;2.10;;;18.70;91.90;;;19.32;74.49;98504.72;5085065;28;20455;-81
2022/08/29 08:24:18;;;;;;;3.13;1.77;;;18.70;91.80;;;19.36;74.50;98502.41;5085402;28;20487;-80
2022/08/29 08:26:48;;;;;;;6.20;1.90;;;18.70;91.80;;;19.39;74.90;98507.25;5086490;28;20459;-80
2022/08/29 08:29:18;;;;;;;3.20;2.10;;;18.70;92.00;;;19.43;74.77;98506.59;5085648;28;21197;-80
2022/08/29 08:31:50;;;;;;;8.33;2.60;;;18.80;92.00;;;19.46;75.09;98508.78;5086109;28;20524;-80
2022/08/29 08:34:20;;;;;;;4.30;2.10;;;18.80;92.10;;;19.52;73.55;98510.50;5087250;28;20490;-81
2022/08/29 08:36:49;;;;;;;4.70;1.90;;;18.90;91.70;;;19.52;73.92;98513.13;5087958;28;20522;-80
2022/08/29 08:39:18;;;;;;;6.87;2.00;;;18.80;91.70;;;19.56;73.87;98510.81;5085679;28;21006;-80
2022/08/29 08:41:57;;;;;;;4.90;2.30;;;18.90;91.90;;;19.63;74.21;98513.34;5085436;28;20475;-81
2022/08/29 08:45:04;;;;;;;9.33;2.50;;;18.90;91.90;;;19.67;73.81;98517.16;5086993;28;20487;-82
2022/08/29 08:47:39;;;;;;;3.77;1.70;;;18.90;91.80;;;19.69;73.33;98509.75;5072729;28;20985;-81
2022/08/29 08:50:18;;;;;;;4.80;2.23;;;18.90;91.60;;;19.75;73.43;98514.16;5084479;28;21023;-81
2022/08/29 08:52:58;;;;;;;5.70;1.90;;;19.00;91.80;;;19.78;73.19;98513.69;5086559;28;20443;-80
2022/08/29 08:55:41;;;;;;;5.60;2.53;;;19.10;91.80;;;19.81;71.78;98518.53;5086349;28;20443;-80
2022/08/29 08:58:29;;;;;;;7.07;2.20;;;19.20;91.50;;;19.84;71.30;98515.38;5087050;28;20447;-81
2022/08/29 09:01:13;;;;;;;6.00;1.87;;;19.20;91.30;;;19.87;71.75;98512.25;5086079;28;21555;-80
2022/08/29 09:04:20;;;;;;;13.17;2.90;;;19.20;91.30;;;19.94;71.44;98502.31;5084047;28;20455;-81
2022/08/29 09:07:10;;;;;;;7.33;2.37;;;19.30;91.50;;;19.96;70.14;98506.34;5062743;28;20867;-81
2022/08/29 09:09:56;;;;;;;6.80;2.60;;;19.30;91.00;;;20.03;70.50;98506.19;5086194;28;20485;-80
2022/08/29 09:12:46;;;;;;;10.00;2.30;;;19.40;91.20;;;20.09;70.81;98506.09;5085039;28;20553;-81
2022/08/29 09:15:24;;;;;;;6.20;2.40;;;19.40;91.20;;;20.16;71.14;98508.59;5091102;28;20439;-81
2022/08/29 09:18:05;;;;;;;6.20;1.80;;;19.50;91.40;;;20.22;69.67;98505.00;5090175;28;20525;-81
2022/08/29 09:20:37;;;;;;;13.60;2.47;;;19.50;91.00;;;20.28;69.10;98497.94;5091401;28;20861;-81
2022/08/29 09:23:18;;;;;;;6.13;2.53;;;19.70;90.90;;;20.33;69.62;98495.41;5089012;28;20443;-80
2022/08/29 09:25:48;;;;;;;6.60;2.43;;;19.70;91.10;;;20.37;68.40;98497.34;5089738;28;20502;-81
2022/08/29 09:28:17;;;;;;;8.40;1.80;;;19.70;90.80;;;20.43;68.57;98493.72;5088717;28;20474;-81
2022/08/29 09:31:22;;;;;;;2.23;1.40;;;19.80;90.80;;;20.49;67.21;98492.75;5087640;28;20476;-81
2022/08/29 09:33:56;;;;;;;7.17;2.10;;;19.90;90.70;;;20.56;68.22;98496.06;5090668;28;20964;-82
2022/08/29 09:36:40;;;;;;;7.47;1.90;;;20.00;90.80;;;20.64;67.32;98497.53;5091487;28;20504;-81
2022/08/29 09:39:24;;;;;;;12.70;2.93;;;20.00;90.50;;;20.72;66.49;98491.03;5089169;28;21323;-80
2022/08/29 09:41:57;;;;;;;9.00;2.43;;;20.10;90.40;;;20.79;66.20;98494.34;5087583;28;20502;-81
2022/08/29 09:44:30;;;;;;;3.90;1.80;;;20.20;90.20;;;20.85;64.85;98496.03;5090373;28;20471;-81
2022/08/29 09:47:11;;;;;;;6.90;2.50;;;20.40;90.00;;;20.91;65.01;98481.75;5089522;28;20945;-80
2022/08/29 09:50:08;;;;;;;5.73;2.50;;;20.40;90.00;;;20.99;65.60;98489.34;5087907;28;20447;-81
2022/08/29 09:52:40;;;;;;;8.40;2.33;;;20.40;90.10;;;21.05;64.05;98488.34;5088082;28;20464;-81
2022/08/29 09:55:21;;;;;;;4.70;2.00;;;20.50;89.20;;;21.12;63.25;98489.03;5089659;28;20491;-81
2022/08/29 09:57:55;;;;;;;8.10;2.20;;;20.60;89.20;;;21.17;63.45;98486.44;5090392;28;20458;-81
2022/08/29 10:00:30;;;;;;;7.27;2.33;;;20.60;89.40;;;21.26;61.32;98489.47;5089683;28;20443;-80
2022/08/29 10:03:02;;;;;;;12.20;2.43;;;20.70;88.00;;;21.30;59.05;98488.75;5089350;28;20495;-81
2022/08/29 10:05:44;;;;;;;6.03;2.30;;;20.90;86.50;;;21.34;60.73;98481.91;5089888;28;20591;-81
2022/08/29 10:08:30;;;;;;;6.40;1.97;;;20.90;87.90;;;21.41;61.16;98477.22;5088633;28;20463;-81
2022/08/29 10:11:02;;;;;;;13.87;2.50;;;20.90;88.30;;;21.49;61.47;98478.63;5088625;28;20451;-81
2022/08/29 10:13:40;;;;;;;9.63;2.47;;;21.00;88.50;;;21.56;59.80;98476.59;5087960;28;20460;-81
2022/08/29 10:16:24;;;;;;;5.83;2.03;;;21.10;87.10;;;21.65;59.34;98476.97;5089240;28;20953;-81
2022/08/29 10:19:00;;;;;;;7.10;1.80;;;21.20;87.20;;;21.69;59.70;98472.78;5088203;28;20475;-81
2022/08/29 10:21:39;;;;;;;8.17;2.47;;;21.10;87.20;;;21.75;59.89;98472.56;5087981;28;20976;-81
2022/08/29 10:24:31;;;;;;;7.00;2.63;;;21.10;87.40;;;21.82;57.14;98467.06;5089469;28;20447;-81
2022/08/29 10:27:10;;;;;;;5.40;2.00;;;21.30;85.90;;;21.88;57.07;98471.38;5087750;28;20516;-81
2022/08/29 10:30:01;;;;;;;6.43;2.87;;;21.40;85.70;;;21.95;57.45;98459.53;5089951;28;20492;-80
2022/08/29 10:33:08;;;;;;;4.03;2.20;;;21.50;85.80;;;22.05;57.42;98456.16;5088429;28;20488;-81
2022/08/29 10:35:47;;;;;;;6.97;2.43;;;21.60;85.60;;;22.18;56.23;98461.09;5085767;28;21079;-81
2022/08/29 10:38:45;;;;;;;6.30;2.00;;;21.70;84.70;;;22.27;56.21;98451.59;5088309;28;20448;-81
2022/08/29 10:41:30;;;;;;;4.30;1.93;;;21.80;85.30;;;22.36;57.43;98451.94;5088038;28;20530;-81
2022/08/29 10:44:16;;;;;;;3.93;1.93;;;21.90;86.00;;;22.43;56.74;98448.00;5089026;28;20452;-81
2022/08/29 10:47:22;;;;;;;10.40;2.03;;;21.90;85.90;;;22.51;56.42;98449.41;5087906;28;20463;-80